sensor_id;sensor_type;location;lat;lon;timestamp;P1;durP1;ratioP1;P2;durP2;ratioP2
21825;SDS011;11075;47.944;11.776;2023-02-14T00:00:57;52.77;;;19.83;;
21825;SDS011;11075;47.944;11.776;2023-02-14T00:03:24;44.93;;;20.20;;
21825;SDS011;11075;47.944;11.776;2023-02-14T00:05:51;42.43;;;19.83;;
21825;SDS011;11075;47.944;11.776;2023-02-14T00:08:18;45.53;;;21.57;;
21825;SDS011;11075;47.944;11.776;2023-02-14T00:10:45;47.30;;;21.30;;
21825;SDS011;11075;47.944;11.776;2023-02-14T00:13:12;46.23;;;20.83;;
21825;SDS011;11075;47.944;11.776;2023-02-14T00:15:39;54.47;;;19.80;;
21825;SDS011;11075;47.944;11.776;2023-02-14T00:18:06;48.23;;;20.73;;
21825;SDS011;11075;47.944;11.776;2023-02-14T00:20:33;56.60;;;21.57;;
21825;SDS011;11075;47.944;11.776;2023-02-14T00:22:59;64.97;;;21.77;;
21825;SDS011;11075;47.944;11.776;2023-02-14T00:25:26;43.30;;;20.03;;
21825;SDS011;11075;47.944;11.776;2023-02-14T00:27:53;50.67;;;20.37;;
21825;SDS011;11075;47.944;11.776;2023-02-14T00:30:21;58.57;;;20.33;;
21825;SDS011;11075;47.944;11.776;2023-02-14T00:32:48;55.40;;;22.30;;
21825;SDS011;11075;47.944;11.776;2023-02-14T00:35:15;57.90;;;21.57;;
21825;SDS011;11075;47.944;11.776;2023-02-14T00:37:42;48.20;;;21.20;;
21825;SDS011;11075;47.944;11.776;2023-02-14T00:40:11;54.20;;;19.90;;
21825;SDS011;11075;47.944;11.776;2023-02-14T00:42:38;46.03;;;18.97;;
21825;SDS011;11075;47.944;11.776;2023-02-14T00:45:05;43.40;;;20.57;;
21825;SDS011;11075;47.944;11.776;2023-02-14T00:47:33;42.10;;;19.97;;
21825;SDS011;11075;47.944;11.776;2023-02-14T00:50:00;53.07;;;21.30;;
21825;SDS011;11075;47.944;11.776;2023-02-14T00:52:29;43.90;;;19.17;;
21825;SDS011;11075;47.944;11.776;2023-02-14T00:54:56;73.50;;;18.70;;
21825;SDS011;11075;47.944;11.776;2023-02-14T00:57:23;43.70;;;20.10;;
21825;SDS011;11075;47.944;11.776;2023-02-14T00:59:50;41.07;;;18.90;;
21825;SDS011;11075;47.944;11.776;2023-02-14T01:02:19;45.50;;;21.67;;
21825;SDS011;11075;47.944;11.776;2023-02-14T01:04:46;54.83;;;20.50;;
21825;SDS011;11075;47.944;11.776;2023-02-14T01:07:13;47.87;;;20.27;;
21825;SDS011;11075;47.944;11.776;2023-02-14T01:09:40;59.47;;;19.97;;
21825;SDS011;11075;47.944;11.776;2023-02-14T01:12:07;94.87;;;18.97;;
21825;SDS011;11075;47.944;11.776;2023-02-14T01:14:34;55.70;;;19.93;;
21825;SDS011;11075;47.944;11.776;2023-02-14T01:17:01;65.60;;;18.90;;
21825;SDS011;11075;47.944;11.776;2023-02-14T01:19:28;51.43;;;18.90;;
21825;SDS011;11075;47.944;11.776;2023-02-14T01:21:55;59.73;;;19.37;;
21825;SDS011;11075;47.944;11.776;2023-02-14T01:24:22;39.83;;;19.97;;
21825;SDS011;11075;47.944;11.776;2023-02-14T01:26:50;60.60;;;18.93;;
21825;SDS011;11075;47.944;11.776;2023-02-14T01:29:17;52.60;;;19.27;;
21825;SDS011;11075;47.944;11.776;2023-02-14T01:31:44;60.40;;;18.83;;
21825;SDS011;11075;47.944;11.776;2023-02-14T01:34:13;41.30;;;19.47;;
21825;SDS011;11075;47.944;11.776;2023-02-14T01:36:40;44.77;;;18.50;;
21825;SDS011;11075;47.944;11.776;2023-02-14T01:39:09;51.20;;;20.83;;
21825;SDS011;11075;47.944;11.776;2023-02-14T01:41:39;52.20;;;19.10;;
21825;SDS011;11075;47.944;11.776;2023-02-14T01:46:41;41.90;;;17.90;;
21825;SDS011;11075;47.944;11.776;2023-02-14T01:51:47;48.30;;;20.17;;
21825;SDS011;11075;47.944;11.776;2023-02-14T01:54:18;50.60;;;18.77;;
21825;SDS011;11075;47.944;11.776;2023-02-14T01:56:48;53.03;;;20.07;;
21825;SDS011;11075;47.944;11.776;2023-02-14T01:59:21;47.40;;;20.50;;
21825;SDS011;11075;47.944;11.776;2023-02-14T02:01:52;62.10;;;19.93;;
21825;SDS011;11075;47.944;11.776;2023-02-14T02:04:21;65.87;;;20.40;;
21825;SDS011;11075;47.944;11.776;2023-02-14T02:06:56;47.43;;;20.97;;
21825;SDS011;11075;47.944;11.776;2023-02-14T02:09:33;55.40;;;18.33;;
21825;SDS011;11075;47.944;11.776;2023-02-14T02:12:02;60.43;;;19.00;;
21825;SDS011;11075;47.944;11.776;2023-02-14T02:14:29;46.40;;;19.20;;
21825;SDS011;11075;47.944;11.776;2023-02-14T02:37:18;45.83;;;18.90;;
21825;SDS011;11075;47.944;11.776;2023-02-14T02:48:14;56.20;;;18.30;;
21825;SDS011;11075;47.944;11.776;2023-02-14T02:50:50;68.17;;;19.27;;
21825;SDS011;11075;47.944;11.776;2023-02-14T02:53:42;56.73;;;16.50;;
21825;SDS011;11075;47.944;11.776;2023-02-14T02:56:18;40.70;;;17.97;;
21825;SDS011;11075;47.944;11.776;2023-02-14T03:02:08;42.07;;;17.40;;
21825;SDS011;11075;47.944;11.776;2023-02-14T03:04:46;75.17;;;18.70;;
21825;SDS011;11075;47.944;11.776;2023-02-14T03:07:34;51.77;;;17.13;;
21825;SDS011;11075;47.944;11.776;2023-02-14T03:10:08;42.73;;;17.17;;
21825;SDS011;11075;47.944;11.776;2023-02-14T03:13:07;52.80;;;17.77;;
21825;SDS011;11075;47.944;11.776;2023-02-14T03:15:53;39.60;;;18.83;;
21825;SDS011;11075;47.944;11.776;2023-02-14T03:18:54;62.47;;;18.37;;
21825;SDS011;11075;47.944;11.776;2023-02-14T03:24:28;53.97;;;19.53;;
21825;SDS011;11075;47.944;11.776;2023-02-14T03:32:38;48.27;;;17.40;;
21825;SDS011;11075;47.944;11.776;2023-02-14T03:35:14;42.83;;;14.53;;
21825;SDS011;11075;47.944;11.776;2023-02-14T03:40:41;45.07;;;18.37;;
21825;SDS011;11075;47.944;11.776;2023-02-14T03:43:16;46.37;;;17.97;;
21825;SDS011;11075;47.944;11.776;2023-02-14T03:45:50;44.27;;;18.23;;
21825;SDS011;11075;47.944;11.776;2023-02-14T03:48:22;47.70;;;17.10;;
21825;SDS011;11075;47.944;11.776;2023-02-14T03:50:52;53.60;;;18.17;;
21825;SDS011;11075;47.944;11.776;2023-02-14T03:53:21;40.73;;;16.97;;
21825;SDS011;11075;47.944;11.776;2023-02-14T03:58:27;67.77;;;18.47;;
21825;SDS011;11075;47.944;11.776;2023-02-14T04:01:02;40.27;;;16.50;;
21825;SDS011;11075;47.944;11.776;2023-02-14T04:03:37;44.10;;;16.70;;
21825;SDS011;11075;47.944;11.776;2023-02-14T04:06:06;42.10;;;17.30;;
21825;SDS011;11075;47.944;11.776;2023-02-14T04:08:33;41.60;;;16.83;;
21825;SDS011;11075;47.944;11.776;2023-02-14T04:11:00;39.93;;;16.47;;
21825;SDS011;11075;47.944;11.776;2023-02-14T04:13:28;45.27;;;17.97;;
21825;SDS011;11075;47.944;11.776;2023-02-14T04:15:55;48.47;;;17.80;;
21825;SDS011;11075;47.944;11.776;2023-02-14T04:18:22;45.67;;;15.83;;
21825;SDS011;11075;47.944;11.776;2023-02-14T04:21:07;38.47;;;16.30;;
21825;SDS011;11075;47.944;11.776;2023-02-14T04:23:34;48.73;;;17.47;;
21825;SDS011;11075;47.944;11.776;2023-02-14T04:26:01;42.80;;;18.57;;
21825;SDS011;11075;47.944;11.776;2023-02-14T04:28:30;69.47;;;18.20;;
21825;SDS011;11075;47.944;11.776;2023-02-14T04:31:00;47.20;;;16.90;;
21825;SDS011;11075;47.944;11.776;2023-02-14T04:33:30;50.50;;;17.27;;
21825;SDS011;11075;47.944;11.776;2023-02-14T04:35:57;39.33;;;15.90;;
21825;SDS011;11075;47.944;11.776;2023-02-14T04:38:24;63.33;;;16.50;;
21825;SDS011;11075;47.944;11.776;2023-02-14T04:40:52;42.17;;;15.80;;
21825;SDS011;11075;47.944;11.776;2023-02-14T04:43:19;40.17;;;17.03;;
21825;SDS011;11075;47.944;11.776;2023-02-14T04:45:46;45.20;;;16.37;;
21825;SDS011;11075;47.944;11.776;2023-02-14T04:48:13;60.03;;;16.00;;
21825;SDS011;11075;47.944;11.776;2023-02-14T04:50:40;52.77;;;15.87;;
21825;SDS011;11075;47.944;11.776;2023-02-14T04:53:07;41.33;;;16.83;;
21825;SDS011;11075;47.944;11.776;2023-02-14T04:55:34;35.10;;;15.27;;
21825;SDS011;11075;47.944;11.776;2023-02-14T04:58:01;38.33;;;15.53;;
21825;SDS011;11075;47.944;11.776;2023-02-14T05:00:28;39.53;;;16.33;;
21825;SDS011;11075;47.944;11.776;2023-02-14T05:02:55;39.63;;;16.00;;
21825;SDS011;11075;47.944;11.776;2023-02-14T05:05:21;52.13;;;16.33;;
21825;SDS011;11075;47.944;11.776;2023-02-14T05:07:48;41.87;;;16.47;;
21825;SDS011;11075;47.944;11.776;2023-02-14T05:10:15;45.57;;;16.47;;
21825;SDS011;11075;47.944;11.776;2023-02-14T05:12:42;38.27;;;17.97;;
21825;SDS011;11075;47.944;11.776;2023-02-14T05:15:09;39.73;;;17.80;;
21825;SDS011;11075;47.944;11.776;2023-02-14T05:17:36;39.83;;;16.57;;
21825;SDS011;11075;47.944;11.776;2023-02-14T05:20:04;39.20;;;16.73;;
21825;SDS011;11075;47.944;11.776;2023-02-14T05:22:32;40.70;;;17.37;;
21825;SDS011;11075;47.944;11.776;2023-02-14T05:24:58;49.03;;;17.00;;
21825;SDS011;11075;47.944;11.776;2023-02-14T05:27:25;41.53;;;15.97;;
21825;SDS011;11075;47.944;11.776;2023-02-14T05:29:52;36.97;;;16.07;;
21825;SDS011;11075;47.944;11.776;2023-02-14T05:32:19;42.20;;;16.67;;
21825;SDS011;11075;47.944;11.776;2023-02-14T05:34:46;48.80;;;15.70;;
21825;SDS011;11075;47.944;11.776;2023-02-14T05:37:13;48.67;;;14.47;;
21825;SDS011;11075;47.944;11.776;2023-02-14T05:39:40;45.50;;;15.37;;
21825;SDS011;11075;47.944;11.776;2023-02-14T05:42:06;36.87;;;15.50;;
21825;SDS011;11075;47.944;11.776;2023-02-14T05:44:32;37.67;;;14.83;;
21825;SDS011;11075;47.944;11.776;2023-02-14T05:46:59;48.67;;;14.97;;
21825;SDS011;11075;47.944;11.776;2023-02-14T05:49:26;36.70;;;15.10;;
21825;SDS011;11075;47.944;11.776;2023-02-14T05:51:53;33.93;;;15.13;;
21825;SDS011;11075;47.944;11.776;2023-02-14T05:54:20;39.10;;;16.10;;
21825;SDS011;11075;47.944;11.776;2023-02-14T05:56:47;47.73;;;16.30;;
21825;SDS011;11075;47.944;11.776;2023-02-14T05:59:14;37.07;;;15.03;;
21825;SDS011;11075;47.944;11.776;2023-02-14T06:01:41;34.67;;;15.67;;
21825;SDS011;11075;47.944;11.776;2023-02-14T06:04:08;52.10;;;16.50;;
21825;SDS011;11075;47.944;11.776;2023-02-14T06:06:34;44.10;;;15.37;;
21825;SDS011;11075;47.944;11.776;2023-02-14T06:09:02;31.43;;;14.87;;
21825;SDS011;11075;47.944;11.776;2023-02-14T06:11:29;40.93;;;14.73;;
21825;SDS011;11075;47.944;11.776;2023-02-14T06:13:56;52.63;;;13.83;;
21825;SDS011;11075;47.944;11.776;2023-02-14T06:16:23;63.53;;;14.20;;
21825;SDS011;11075;47.944;11.776;2023-02-14T06:18:50;39.83;;;14.17;;
21825;SDS011;11075;47.944;11.776;2023-02-14T06:21:17;43.17;;;15.07;;
21825;SDS011;11075;47.944;11.776;2023-02-14T06:23:44;36.93;;;15.50;;
21825;SDS011;11075;47.944;11.776;2023-02-14T06:26:11;42.80;;;14.43;;
21825;SDS011;11075;47.944;11.776;2023-02-14T06:28:38;34.20;;;14.50;;
21825;SDS011;11075;47.944;11.776;2023-02-14T06:31:05;30.37;;;13.60;;
21825;SDS011;11075;47.944;11.776;2023-02-14T06:33:33;36.10;;;15.33;;
21825;SDS011;11075;47.944;11.776;2023-02-14T06:36:01;39.53;;;16.60;;
21825;SDS011;11075;47.944;11.776;2023-02-14T06:38:28;32.73;;;15.40;;
21825;SDS011;11075;47.944;11.776;2023-02-14T06:41:00;42.63;;;17.23;;
21825;SDS011;11075;47.944;11.776;2023-02-14T06:43:29;38.67;;;16.40;;
21825;SDS011;11075;47.944;11.776;2023-02-14T06:45:55;35.23;;;16.23;;
21825;SDS011;11075;47.944;11.776;2023-02-14T06:48:22;42.60;;;16.53;;
21825;SDS011;11075;47.944;11.776;2023-02-14T06:50:49;49.93;;;17.17;;
21825;SDS011;11075;47.944;11.776;2023-02-14T06:53:17;46.63;;;17.70;;
21825;SDS011;11075;47.944;11.776;2023-02-14T06:55:45;47.70;;;19.53;;
21825;SDS011;11075;47.944;11.776;2023-02-14T06:58:12;40.53;;;17.43;;
21825;SDS011;11075;47.944;11.776;2023-02-14T07:00:40;46.17;;;18.33;;
21825;SDS011;11075;47.944;11.776;2023-02-14T07:03:07;57.30;;;17.80;;
21825;SDS011;11075;47.944;11.776;2023-02-14T07:05:34;50.80;;;16.47;;
21825;SDS011;11075;47.944;11.776;2023-02-14T07:08:02;37.87;;;16.67;;
21825;SDS011;11075;47.944;11.776;2023-02-14T07:10:29;37.23;;;16.53;;
21825;SDS011;11075;47.944;11.776;2023-02-14T07:12:56;35.40;;;16.60;;
21825;SDS011;11075;47.944;11.776;2023-02-14T07:15:23;34.60;;;15.47;;
21825;SDS011;11075;47.944;11.776;2023-02-14T07:17:50;36.23;;;15.63;;
21825;SDS011;11075;47.944;11.776;2023-02-14T07:20:17;34.03;;;17.20;;
21825;SDS011;11075;47.944;11.776;2023-02-14T07:22:45;37.57;;;16.00;;
21825;SDS011;11075;47.944;11.776;2023-02-14T07:25:12;33.87;;;16.23;;
21825;SDS011;11075;47.944;11.776;2023-02-14T07:27:39;36.43;;;16.97;;
21825;SDS011;11075;47.944;11.776;2023-02-14T07:30:06;34.47;;;16.50;;
21825;SDS011;11075;47.944;11.776;2023-02-14T07:32:35;36.97;;;17.37;;
21825;SDS011;11075;47.944;11.776;2023-02-14T07:35:03;34.53;;;14.57;;
21825;SDS011;11075;47.944;11.776;2023-02-14T07:37:31;34.20;;;16.50;;
21825;SDS011;11075;47.944;11.776;2023-02-14T07:39:58;33.67;;;16.23;;
21825;SDS011;11075;47.944;11.776;2023-02-14T07:42:25;35.53;;;16.87;;
21825;SDS011;11075;47.944;11.776;2023-02-14T07:44:52;36.37;;;17.20;;
21825;SDS011;11075;47.944;11.776;2023-02-14T07:47:19;35.40;;;17.90;;
21825;SDS011;11075;47.944;11.776;2023-02-14T07:49:46;38.73;;;18.90;;
21825;SDS011;11075;47.944;11.776;2023-02-14T07:52:13;31.17;;;16.57;;
21825;SDS011;11075;47.944;11.776;2023-02-14T07:54:40;30.57;;;16.07;;
21825;SDS011;11075;47.944;11.776;2023-02-14T07:57:07;36.43;;;18.17;;
21825;SDS011;11075;47.944;11.776;2023-02-14T07:59:34;42.73;;;21.03;;
21825;SDS011;11075;47.944;11.776;2023-02-14T08:02:01;43.27;;;19.77;;
21825;SDS011;11075;47.944;11.776;2023-02-14T08:04:29;38.47;;;17.87;;
21825;SDS011;11075;47.944;11.776;2023-02-14T08:06:59;31.07;;;17.03;;
21825;SDS011;11075;47.944;11.776;2023-02-14T08:09:26;24.37;;;13.80;;
21825;SDS011;11075;47.944;11.776;2023-02-14T08:11:53;23.23;;;13.50;;
21825;SDS011;11075;47.944;11.776;2023-02-14T08:14:40;24.53;;;13.17;;
21825;SDS011;11075;47.944;11.776;2023-02-14T08:17:08;27.70;;;13.23;;
21825;SDS011;11075;47.944;11.776;2023-02-14T08:19:35;26.93;;;15.67;;
21825;SDS011;11075;47.944;11.776;2023-02-14T08:22:03;19.60;;;11.33;;
21825;SDS011;11075;47.944;11.776;2023-02-14T08:24:30;17.67;;;10.77;;
21825;SDS011;11075;47.944;11.776;2023-02-14T08:26:57;20.73;;;11.77;;
21825;SDS011;11075;47.944;11.776;2023-02-14T08:29:25;18.23;;;11.30;;
21825;SDS011;11075;47.944;11.776;2023-02-14T08:31:51;17.67;;;11.60;;
21825;SDS011;11075;47.944;11.776;2023-02-14T08:34:19;15.97;;;10.57;;
21825;SDS011;11075;47.944;11.776;2023-02-14T08:36:46;18.00;;;11.37;;
21825;SDS011;11075;47.944;11.776;2023-02-14T08:39:13;20.30;;;12.70;;
21825;SDS011;11075;47.944;11.776;2023-02-14T08:41:40;21.30;;;12.93;;
21825;SDS011;11075;47.944;11.776;2023-02-14T08:44:07;20.97;;;12.07;;
21825;SDS011;11075;47.944;11.776;2023-02-14T08:46:34;24.03;;;13.07;;
21825;SDS011;11075;47.944;11.776;2023-02-14T08:49:01;18.57;;;11.87;;
21825;SDS011;11075;47.944;11.776;2023-02-14T08:51:28;21.27;;;12.77;;
21825;SDS011;11075;47.944;11.776;2023-02-14T08:53:54;18.70;;;12.00;;
21825;SDS011;11075;47.944;11.776;2023-02-14T08:56:22;19.03;;;11.97;;
21825;SDS011;11075;47.944;11.776;2023-02-14T08:58:50;17.00;;;10.57;;
21825;SDS011;11075;47.944;11.776;2023-02-14T09:01:18;17.30;;;10.43;;
21825;SDS011;11075;47.944;11.776;2023-02-14T09:03:46;17.03;;;10.77;;
21825;SDS011;11075;47.944;11.776;2023-02-14T09:06:13;15.53;;;10.63;;
21825;SDS011;11075;47.944;11.776;2023-02-14T09:08:43;18.90;;;11.60;;
21825;SDS011;11075;47.944;11.776;2023-02-14T09:11:15;21.37;;;13.27;;
21825;SDS011;11075;47.944;11.776;2023-02-14T09:13:44;17.87;;;10.80;;
21825;SDS011;11075;47.944;11.776;2023-02-14T09:16:13;16.00;;;10.33;;
21825;SDS011;11075;47.944;11.776;2023-02-14T09:18:43;15.90;;;10.90;;
21825;SDS011;11075;47.944;11.776;2023-02-14T09:21:17;16.03;;;10.90;;
21825;SDS011;11075;47.944;11.776;2023-02-14T09:23:46;15.33;;;10.07;;
21825;SDS011;11075;47.944;11.776;2023-02-14T09:26:14;15.60;;;10.57;;
21825;SDS011;11075;47.944;11.776;2023-02-14T09:28:42;16.00;;;10.53;;
21825;SDS011;11075;47.944;11.776;2023-02-14T09:31:11;15.93;;;10.10;;
21825;SDS011;11075;47.944;11.776;2023-02-14T09:33:40;15.53;;;10.67;;
21825;SDS011;11075;47.944;11.776;2023-02-14T09:36:08;15.13;;;10.40;;
21825;SDS011;11075;47.944;11.776;2023-02-14T09:38:53;14.07;;;9.33;;
21825;SDS011;11075;47.944;11.776;2023-02-14T09:47:05;13.33;;;9.30;;
21825;SDS011;11075;47.944;11.776;2023-02-14T09:49:45;14.33;;;9.43;;
21825;SDS011;11075;47.944;11.776;2023-02-14T09:52:14;12.77;;;9.07;;
21825;SDS011;11075;47.944;11.776;2023-02-14T09:54:45;13.03;;;9.43;;
21825;SDS011;11075;47.944;11.776;2023-02-14T10:00:16;15.53;;;10.50;;
21825;SDS011;11075;47.944;11.776;2023-02-14T10:06:22;16.03;;;11.27;;
21825;SDS011;11075;47.944;11.776;2023-02-14T10:09:14;14.77;;;10.20;;
21825;SDS011;11075;47.944;11.776;2023-02-14T10:12:03;13.30;;;9.40;;
21825;SDS011;11075;47.944;11.776;2023-02-14T10:14:33;15.03;;;10.30;;
21825;SDS011;11075;47.944;11.776;2023-02-14T10:17:12;14.33;;;9.83;;
21825;SDS011;11075;47.944;11.776;2023-02-14T10:19:41;16.77;;;9.10;;
21825;SDS011;11075;47.944;11.776;2023-02-14T10:22:14;14.67;;;10.50;;
21825;SDS011;11075;47.944;11.776;2023-02-14T10:24:46;15.03;;;10.43;;
21825;SDS011;11075;47.944;11.776;2023-02-14T10:27:25;15.13;;;10.50;;
21825;SDS011;11075;47.944;11.776;2023-02-14T10:30:23;13.80;;;10.03;;
21825;SDS011;11075;47.944;11.776;2023-02-14T10:37:56;13.60;;;10.10;;
21825;SDS011;11075;47.944;11.776;2023-02-14T10:48:33;13.93;;;9.70;;
21825;SDS011;11075;47.944;11.776;2023-02-14T10:56:27;12.23;;;9.20;;
21825;SDS011;11075;47.944;11.776;2023-02-14T10:59:13;12.97;;;9.63;;
21825;SDS011;11075;47.944;11.776;2023-02-14T11:01:41;11.77;;;9.15;;
21825;SDS011;11075;47.944;11.776;2023-02-14T11:04:09;13.77;;;9.80;;
21825;SDS011;11075;47.944;11.776;2023-02-14T11:06:38;12.90;;;9.38;;
21825;SDS011;11075;47.944;11.776;2023-02-14T11:09:05;11.63;;;8.43;;
21825;SDS011;11075;47.944;11.776;2023-02-14T11:14:18;11.15;;;7.72;;
21825;SDS011;11075;47.944;11.776;2023-02-14T11:16:48;10.98;;;8.32;;
21825;SDS011;11075;47.944;11.776;2023-02-14T11:22:04;11.95;;;9.00;;
21825;SDS011;11075;47.944;11.776;2023-02-14T11:24:32;11.30;;;8.60;;
21825;SDS011;11075;47.944;11.776;2023-02-14T11:27:04;10.15;;;8.45;;
21825;SDS011;11075;47.944;11.776;2023-02-14T11:32:21;14.20;;;8.38;;
21825;SDS011;11075;47.944;11.776;2023-02-14T11:37:28;10.68;;;8.68;;
21825;SDS011;11075;47.944;11.776;2023-02-14T11:39:59;10.80;;;8.27;;
21825;SDS011;11075;47.944;11.776;2023-02-14T11:42:42;11.50;;;8.30;;
21825;SDS011;11075;47.944;11.776;2023-02-14T11:51:08;10.27;;;8.10;;
21825;SDS011;11075;47.944;11.776;2023-02-14T11:53:43;10.52;;;8.82;;
21825;SDS011;11075;47.944;11.776;2023-02-14T11:56:19;10.32;;;8.35;;
21825;SDS011;11075;47.944;11.776;2023-02-14T11:58:58;10.48;;;8.40;;
21825;SDS011;11075;47.944;11.776;2023-02-14T12:01:32;13.98;;;9.00;;
21825;SDS011;11075;47.944;11.776;2023-02-14T12:04:02;11.15;;;8.77;;
21825;SDS011;11075;47.944;11.776;2023-02-14T12:06:32;10.43;;;8.52;;
21825;SDS011;11075;47.944;11.776;2023-02-14T12:09:11;10.32;;;7.80;;
21825;SDS011;11075;47.944;11.776;2023-02-14T12:12:01;9.65;;;8.05;;
21825;SDS011;11075;47.944;11.776;2023-02-14T12:14:30;10.07;;;8.45;;
21825;SDS011;11075;47.944;11.776;2023-02-14T12:22:25;7.82;;;6.45;;
21825;SDS011;11075;47.944;11.776;2023-02-14T12:25:11;8.18;;;7.10;;
21825;SDS011;11075;47.944;11.776;2023-02-14T12:28:27;12.20;;;6.88;;
21825;SDS011;11075;47.944;11.776;2023-02-14T12:30:37;7.65;;;6.18;;
21825;SDS011;11075;47.944;11.776;2023-02-14T12:33:17;9.10;;;5.68;;
21825;SDS011;11075;47.944;11.776;2023-02-14T12:35:50;6.20;;;5.35;;
21825;SDS011;11075;47.944;11.776;2023-02-14T12:41:12;5.40;;;4.68;;
21825;SDS011;11075;47.944;11.776;2023-02-14T12:48:55;8.05;;;5.90;;
21825;SDS011;11075;47.944;11.776;2023-02-14T12:54:18;6.13;;;4.75;;
21825;SDS011;11075;47.944;11.776;2023-02-14T13:14:13;5.68;;;4.90;;
21825;SDS011;11075;47.944;11.776;2023-02-14T13:17:06;6.88;;;4.72;;
21825;SDS011;11075;47.944;11.776;2023-02-14T13:22:45;9.27;;;5.45;;
21825;SDS011;11075;47.944;11.776;2023-02-14T13:25:27;7.28;;;6.13;;
21825;SDS011;11075;47.944;11.776;2023-02-14T13:28:00;8.38;;;6.53;;
21825;SDS011;11075;47.944;11.776;2023-02-14T13:30:32;8.68;;;5.82;;
21825;SDS011;11075;47.944;11.776;2023-02-14T13:33:06;8.07;;;5.97;;
21825;SDS011;11075;47.944;11.776;2023-02-14T13:35:50;7.50;;;6.05;;
21825;SDS011;11075;47.944;11.776;2023-02-14T13:38:21;8.55;;;6.50;;
21825;SDS011;11075;47.944;11.776;2023-02-14T13:40:50;9.07;;;6.50;;
21825;SDS011;11075;47.944;11.776;2023-02-14T13:44:01;9.13;;;6.70;;
21825;SDS011;11075;47.944;11.776;2023-02-14T13:49:00;10.27;;;6.30;;
21825;SDS011;11075;47.944;11.776;2023-02-14T13:51:43;9.98;;;6.32;;
21825;SDS011;11075;47.944;11.776;2023-02-14T13:54:21;8.45;;;5.97;;
21825;SDS011;11075;47.944;11.776;2023-02-14T13:56:53;7.75;;;5.97;;
21825;SDS011;11075;47.944;11.776;2023-02-14T13:59:33;9.48;;;6.47;;
21825;SDS011;11075;47.944;11.776;2023-02-14T14:02:28;9.73;;;6.10;;
21825;SDS011;11075;47.944;11.776;2023-02-14T14:04:55;9.60;;;7.05;;
21825;SDS011;11075;47.944;11.776;2023-02-14T14:07:23;9.63;;;6.28;;
21825;SDS011;11075;47.944;11.776;2023-02-14T14:09:56;10.80;;;6.63;;
21825;SDS011;11075;47.944;11.776;2023-02-14T14:22:56;12.20;;;7.72;;
21825;SDS011;11075;47.944;11.776;2023-02-14T14:25:35;11.10;;;7.25;;
21825;SDS011;11075;47.944;11.776;2023-02-14T14:28:10;22.17;;;8.32;;
21825;SDS011;11075;47.944;11.776;2023-02-14T14:30:43;15.02;;;9.23;;
21825;SDS011;11075;47.944;11.776;2023-02-14T14:33:12;11.95;;;8.88;;
21825;SDS011;11075;47.944;11.776;2023-02-14T14:35:50;11.35;;;8.02;;
21825;SDS011;11075;47.944;11.776;2023-02-14T14:38:19;12.75;;;8.60;;
21825;SDS011;11075;47.944;11.776;2023-02-14T14:40:46;14.03;;;8.73;;
21825;SDS011;11075;47.944;11.776;2023-02-14T14:43:22;12.47;;;8.07;;
21825;SDS011;11075;47.944;11.776;2023-02-14T14:45:52;14.23;;;9.10;;
21825;SDS011;11075;47.944;11.776;2023-02-14T14:48:25;14.27;;;9.00;;
21825;SDS011;11075;47.944;11.776;2023-02-14T14:50:58;16.53;;;8.40;;
21825;SDS011;11075;47.944;11.776;2023-02-14T14:53:31;14.90;;;8.53;;
21825;SDS011;11075;47.944;11.776;2023-02-14T14:56:11;12.53;;;8.20;;
21825;SDS011;11075;47.944;11.776;2023-02-14T14:58:43;11.90;;;8.37;;
21825;SDS011;11075;47.944;11.776;2023-02-14T15:01:11;14.63;;;8.57;;
21825;SDS011;11075;47.944;11.776;2023-02-14T15:03:46;12.37;;;8.47;;
21825;SDS011;11075;47.944;11.776;2023-02-14T15:06:15;13.23;;;8.20;;
21825;SDS011;11075;47.944;11.776;2023-02-14T15:08:44;14.23;;;7.97;;
21825;SDS011;11075;47.944;11.776;2023-02-14T15:11:20;18.87;;;10.37;;
21825;SDS011;11075;47.944;11.776;2023-02-14T15:14:17;19.90;;;12.00;;
21825;SDS011;11075;47.944;11.776;2023-02-14T15:16:48;18.37;;;11.17;;
21825;SDS011;11075;47.944;11.776;2023-02-14T15:21:51;87.77;;;31.10;;
21825;SDS011;11075;47.944;11.776;2023-02-14T15:24:18;62.17;;;21.97;;
21825;SDS011;11075;47.944;11.776;2023-02-14T15:26:46;35.80;;;15.63;;
21825;SDS011;11075;47.944;11.776;2023-02-14T15:29:23;34.10;;;15.13;;
21825;SDS011;11075;47.944;11.776;2023-02-14T15:31:50;34.70;;;16.70;;
21825;SDS011;11075;47.944;11.776;2023-02-14T15:34:19;24.67;;;13.93;;
21825;SDS011;11075;47.944;11.776;2023-02-14T15:36:50;25.53;;;14.77;;
21825;SDS011;11075;47.944;11.776;2023-02-14T15:39:27;24.67;;;13.97;;
21825;SDS011;11075;47.944;11.776;2023-02-14T15:41:59;22.77;;;14.17;;
21825;SDS011;11075;47.944;11.776;2023-02-14T15:44:26;23.87;;;14.33;;
21825;SDS011;11075;47.944;11.776;2023-02-14T15:47:01;23.20;;;12.83;;
21825;SDS011;11075;47.944;11.776;2023-02-14T15:49:35;19.40;;;12.27;;
21825;SDS011;11075;47.944;11.776;2023-02-14T15:52:09;24.73;;;14.40;;
21825;SDS011;11075;47.944;11.776;2023-02-14T15:54:43;28.93;;;15.07;;
21825;SDS011;11075;47.944;11.776;2023-02-14T15:57:18;23.27;;;13.77;;
21825;SDS011;11075;47.944;11.776;2023-02-14T15:59:51;27.77;;;15.40;;
21825;SDS011;11075;47.944;11.776;2023-02-14T16:04:53;40.00;;;18.77;;
21825;SDS011;11075;47.944;11.776;2023-02-14T16:07:28;34.20;;;18.87;;
21825;SDS011;11075;47.944;11.776;2023-02-14T16:12:52;32.03;;;19.73;;
21825;SDS011;11075;47.944;11.776;2023-02-14T16:15:24;25.00;;;14.50;;
21825;SDS011;11075;47.944;11.776;2023-02-14T16:17:53;24.43;;;14.03;;
21825;SDS011;11075;47.944;11.776;2023-02-14T16:20:28;24.00;;;13.63;;
21825;SDS011;11075;47.944;11.776;2023-02-14T16:25:54;24.37;;;13.80;;
21825;SDS011;11075;47.944;11.776;2023-02-14T16:28:26;23.63;;;13.37;;
21825;SDS011;11075;47.944;11.776;2023-02-14T16:30:55;23.57;;;13.30;;
21825;SDS011;11075;47.944;11.776;2023-02-14T16:33:26;26.83;;;14.07;;
21825;SDS011;11075;47.944;11.776;2023-02-14T16:35:57;26.57;;;14.97;;
21825;SDS011;11075;47.944;11.776;2023-02-14T16:38:32;22.90;;;14.27;;
21825;SDS011;11075;47.944;11.776;2023-02-14T16:41:11;27.60;;;14.13;;
21825;SDS011;11075;47.944;11.776;2023-02-14T16:43:43;26.60;;;14.13;;
21825;SDS011;11075;47.944;11.776;2023-02-14T16:46:14;22.90;;;12.87;;
21825;SDS011;11075;47.944;11.776;2023-02-14T16:48:46;20.87;;;12.13;;
21825;SDS011;11075;47.944;11.776;2023-02-14T16:51:18;24.63;;;12.33;;
21825;SDS011;11075;47.944;11.776;2023-02-14T16:53:47;22.97;;;12.93;;
21825;SDS011;11075;47.944;11.776;2023-02-14T16:56:17;22.03;;;13.10;;
21825;SDS011;11075;47.944;11.776;2023-02-14T16:58:48;26.90;;;13.93;;
21825;SDS011;11075;47.944;11.776;2023-02-14T17:01:15;23.23;;;13.40;;
21825;SDS011;11075;47.944;11.776;2023-02-14T17:03:42;24.83;;;13.70;;
21825;SDS011;11075;47.944;11.776;2023-02-14T17:06:11;22.23;;;13.13;;
21825;SDS011;11075;47.944;11.776;2023-02-14T17:08:41;23.70;;;13.90;;
21825;SDS011;11075;47.944;11.776;2023-02-14T17:11:09;24.00;;;13.57;;
21825;SDS011;11075;47.944;11.776;2023-02-14T17:13:36;22.73;;;12.80;;